createdAt,value
2017-12-15T00:02:14.136Z,78.84
2017-12-15T00:04:45.069Z,78.87
2017-12-15T00:07:14.359Z,78.29
2017-12-15T00:09:44.290Z,78.29
2017-12-15T00:12:14.689Z,78.66
2017-12-15T00:14:44.528Z,79.00
2017-12-15T00:17:14.790Z,78.94
2017-12-15T00:19:45.323Z,79.01
2017-12-15T00:22:17.555Z,78.92
2017-12-15T00:25:02.188Z,78.63
2017-12-15T00:27:32.027Z,79.28
2017-12-15T00:30:03.579Z,79.82
2017-12-15T00:32:34.505Z,79.99
2017-12-15T00:35:04.483Z,80.10
2017-12-15T00:37:33.635Z,80.66
2017-12-15T00:40:03.584Z,81.16
2017-12-15T00:42:35.204Z,82.01
2017-12-15T00:45:05.051Z,82.30
2017-12-15T00:47:34.252Z,82.08
2017-12-15T00:50:03.454Z,81.85
2017-12-15T00:52:33.572Z,81.91
2017-12-15T00:55:02.749Z,82.22
2017-12-15T00:57:33.085Z,82.65
2017-12-15T01:00:03.260Z,82.22
2017-12-15T01:02:32.380Z,82.56
2017-12-15T01:05:02.331Z,83.26
2017-12-15T01:07:31.391Z,83.19
2017-12-15T01:10:02.683Z,82.14
2017-12-15T01:12:33.310Z,82.40
2017-12-15T01:15:03.854Z,82.42
2017-12-15T01:17:34.125Z,82.14
2017-12-15T01:20:05.465Z,82.20
2017-12-15T01:22:37.989Z,82.51
2017-12-15T01:25:09.598Z,83.03
2017-12-15T01:27:40.373Z,84.02
2017-12-15T01:30:10.194Z,84.13
2017-12-15T01:32:40.133Z,83.68
2017-12-15T01:35:10.960Z,82.93
2017-12-15T01:37:41.358Z,83.21
2017-12-15T01:40:11.440Z,82.70
2017-12-15T01:42:40.649Z,82.46
2017-12-15T01:45:10.839Z,82.78
2017-12-15T01:47:40.714Z,82.89
2017-12-15T01:50:10.549Z,83.04
2017-12-15T01:52:40.826Z,82.90
2017-12-15T01:55:11.668Z,82.79
2017-12-15T01:57:40.648Z,82.71
2017-12-15T02:00:10.539Z,84.95
2017-12-15T02:05:41.999Z,85.92
2017-12-15T02:08:12.172Z,86.26
2017-12-15T02:10:41.115Z,86.07
2017-12-15T02:13:12.116Z,86.04
2017-12-15T02:15:41.310Z,85.95
2017-12-15T02:18:10.377Z,85.79
2017-12-15T02:20:39.382Z,85.98
2017-12-15T02:23:08.475Z,86.02
2017-12-15T02:25:39.415Z,85.79
2017-12-15T02:28:09.595Z,86.00
2017-12-15T02:30:40.355Z,85.79
2017-12-15T02:33:09.362Z,84.88
2017-12-15T02:35:40.055Z,84.07
2017-12-15T02:38:11.410Z,83.79
2017-12-15T02:43:20.560Z,83.83
2017-12-15T02:45:49.488Z,83.94
2017-12-15T02:48:20.078Z,83.98
2017-12-15T02:50:49.151Z,85.29
2017-12-15T02:53:18.271Z,85.82
2017-12-15T02:55:48.391Z,84.57
2017-12-15T03:00:53.224Z,84.52
2017-12-15T03:03:22.628Z,84.70
2017-12-15T03:05:51.940Z,84.66
2017-12-15T03:08:21.856Z,85.08
2017-12-15T03:10:54.843Z,85.41
2017-12-15T03:13:24.378Z,85.32
2017-12-15T03:15:54.366Z,85.44
2017-12-15T03:18:23.671Z,85.62
2017-12-15T03:20:52.967Z,85.79
2017-12-15T03:23:22.073Z,85.81
2017-12-15T03:25:53.630Z,85.40
2017-12-15T03:28:23.740Z,85.25
2017-12-15T03:30:57.824Z,85.41
2017-12-15T03:33:27.770Z,85.96
2017-12-15T03:35:56.857Z,86.47
2017-12-15T03:38:27.121Z,87.67
2017-12-15T03:40:57.402Z,87.97
2017-12-15T03:43:26.504Z,87.74
2017-12-15T03:45:57.482Z,87.46
2017-12-15T03:48:29.574Z,87.88
2017-12-15T03:50:59.401Z,87.93
2017-12-15T03:53:28.529Z,88.30
2017-12-15T03:55:57.518Z,88.18
2017-12-15T03:58:30.443Z,88.97
2017-12-15T04:00:59.495Z,88.57
2017-12-15T04:03:33.178Z,88.23
2017-12-15T04:06:03.374Z,88.19
2017-12-15T04:08:32.619Z,87.93
2017-12-15T04:11:02.774Z,87.40
2017-12-15T04:13:34.007Z,87.13
2017-12-15T04:16:02.984Z,87.90
2017-12-15T04:18:32.948Z,87.76
2017-12-15T04:21:03.166Z,87.93
2017-12-15T04:23:34.105Z,87.47
2017-12-15T04:26:03.161Z,87.15
2017-12-15T04:28:33.067Z,87.47
2017-12-15T04:31:04.112Z,87.27
2017-12-15T04:33:33.820Z,87.38
2017-12-15T04:36:03.021Z,87.16
2017-12-15T04:38:32.876Z,86.55
2017-12-15T04:41:01.961Z,86.70
2017-12-15T04:43:31.844Z,86.73
2017-12-15T04:46:00.904Z,87.02
2017-12-15T04:48:35.142Z,88.17
2017-12-15T04:51:04.456Z,88.24
2017-12-15T04:53:33.408Z,88.21
2017-12-15T04:56:02.644Z,87.95
2017-12-15T05:01:06.663Z,87.80
2017-12-15T05:03:36.683Z,87.72
2017-12-15T05:06:06.553Z,86.87
2017-12-15T05:08:36.732Z,86.20
2017-12-15T05:11:07.620Z,85.31
2017-12-15T05:19:12.808Z,85.74
2017-12-15T05:21:41.759Z,84.02
2017-12-15T05:26:46.796Z,86.63
2017-12-15T05:29:15.873Z,87.42
2017-12-15T05:31:45.993Z,87.40
2017-12-15T05:34:17.036Z,86.71
2017-12-15T05:36:53.747Z,86.51
2017-12-15T05:39:23.090Z,86.14
2017-12-15T05:41:52.206Z,85.60
2017-12-15T05:44:22.321Z,85.35
2017-12-15T05:46:52.476Z,85.11
2017-12-15T05:49:21.448Z,85.24
2017-12-15T05:51:51.194Z,85.05
2017-12-15T05:54:20.191Z,84.83
2017-12-15T05:56:50.363Z,84.47
2017-12-15T05:59:20.395Z,83.74
2017-12-15T06:01:50.323Z,83.51
2017-12-15T06:04:19.992Z,83.64
2017-12-15T06:06:49.938Z,83.08
2017-12-15T06:09:19.290Z,82.96
2017-12-15T06:11:48.491Z,82.49
2017-12-15T06:14:18.584Z,82.38
2017-12-15T06:16:47.812Z,81.76
2017-12-15T06:19:17.854Z,81.89
2017-12-15T06:21:49.640Z,81.44
2017-12-15T06:24:19.382Z,80.59
2017-12-15T06:26:49.008Z,80.21
2017-12-15T06:29:18.770Z,79.59
2017-12-15T06:31:47.998Z,79.25
2017-12-15T06:34:20.303Z,78.40
2017-12-15T06:36:49.746Z,77.59
2017-12-15T06:39:19.735Z,76.78
2017-12-15T06:41:49.044Z,75.02
2017-12-15T06:44:18.191Z,74.37
2017-12-15T06:46:47.314Z,72.59
2017-12-15T06:49:16.580Z,71.00
2017-12-15T06:51:45.788Z,69.13
2017-12-15T06:54:14.850Z,67.47
2017-12-15T06:56:47.023Z,66.47
2017-12-15T06:59:17.717Z,67.09
2017-12-15T07:01:52.892Z,67.09
2017-12-15T07:04:22.012Z,65.88
2017-12-15T07:06:52.849Z,65.12
2017-12-15T07:09:24.144Z,65.67
2017-12-15T07:11:54.653Z,64.02
2017-12-15T07:14:23.743Z,64.01
2017-12-15T07:16:55.601Z,62.21
2017-12-15T07:19:24.666Z,61.71
2017-12-15T07:21:54.282Z,62.45
2017-12-15T07:24:23.407Z,62.45
2017-12-15T07:26:55.941Z,61.51
2017-12-15T07:29:25.141Z,61.16
2017-12-15T07:31:54.325Z,60.70
2017-12-15T07:34:23.896Z,60.16
2017-12-15T07:36:53.681Z,59.21
2017-12-15T07:39:22.715Z,60.52
2017-12-15T07:41:52.058Z,61.76
2017-12-15T07:44:22.371Z,63.36
2017-12-15T07:46:51.383Z,65.08
2017-12-15T07:49:21.397Z,65.98
2017-12-15T07:51:51.283Z,67.80
2017-12-15T07:54:22.252Z,68.63
2017-12-15T07:56:51.578Z,69.49
2017-12-15T07:59:20.793Z,70.20
2017-12-15T08:01:49.943Z,69.82
2017-12-15T08:04:18.956Z,67.19
2017-12-15T08:06:48.066Z,66.90
2017-12-15T08:09:17.163Z,65.96
2017-12-15T08:11:46.682Z,64.98
2017-12-15T08:14:15.764Z,67.07
2017-12-15T08:16:44.862Z,67.08
2017-12-15T08:19:17.881Z,66.88
2017-12-15T08:21:47.891Z,66.56
2017-12-15T08:24:16.920Z,66.62
2017-12-15T08:26:48.065Z,64.84
2017-12-15T08:29:18.137Z,63.87
2017-12-15T08:31:47.045Z,62.90
2017-12-15T08:34:16.816Z,62.31
2017-12-15T08:36:45.842Z,60.53
2017-12-15T08:39:14.800Z,58.80
2017-12-15T08:41:44.150Z,57.99
2017-12-15T08:44:13.073Z,64.24
2017-12-15T08:46:43.635Z,66.02
2017-12-15T08:49:14.410Z,66.96
2017-12-15T08:51:43.454Z,66.90
2017-12-15T08:54:12.559Z,66.82
2017-12-15T08:56:41.832Z,66.08
2017-12-15T08:59:11.037Z,65.05
2017-12-15T09:01:40.223Z,63.54
2017-12-15T09:04:19.776Z,62.17
2017-12-15T09:06:53.299Z,60.34
2017-12-15T09:09:22.583Z,59.38
2017-12-15T09:11:51.617Z,60.70
2017-12-15T09:14:20.655Z,64.84
2017-12-15T09:16:49.704Z,66.66
2017-12-15T09:19:18.582Z,68.75
2017-12-15T09:21:47.523Z,70.07
2017-12-15T09:24:17.508Z,70.03
2017-12-15T09:26:46.407Z,69.78
2017-12-15T09:29:15.361Z,70.00
2017-12-15T09:31:46.766Z,70.08
2017-12-15T09:34:17.573Z,70.17
2017-12-15T09:36:49.592Z,71.53
2017-12-15T09:39:18.629Z,72.54
2017-12-15T09:41:47.562Z,72.57
2017-12-15T09:44:17.330Z,72.56
2017-12-15T09:46:46.256Z,72.58
2017-12-15T09:49:15.153Z,72.20
2017-12-15T09:51:44.050Z,71.88
2017-12-15T09:54:12.864Z,71.45
2017-12-15T09:56:41.690Z,71.10
2017-12-15T09:59:11.433Z,70.02
2017-12-15T10:01:40.363Z,69.96
2017-12-15T10:04:09.240Z,69.25
2017-12-15T10:06:38.168Z,68.59
2017-12-15T10:09:07.192Z,68.14
2017-12-15T10:11:36.324Z,68.31
2017-12-15T10:14:06.009Z,68.26
2017-12-15T10:16:34.857Z,68.07
2017-12-15T10:19:04.148Z,67.96
2017-12-15T10:21:33.967Z,67.83
2017-12-15T10:24:03.958Z,67.18
2017-12-15T10:26:33.200Z,66.80
2017-12-15T10:29:03.163Z,66.94
2017-12-15T10:31:32.114Z,67.04
2017-12-15T10:34:01.157Z,67.74
2017-12-15T10:36:30.509Z,67.22
2017-12-15T10:38:59.599Z,66.51
2017-12-15T10:41:28.747Z,65.92
2017-12-15T10:43:57.898Z,65.40
2017-12-15T10:46:27.708Z,64.69
2017-12-15T10:49:00.668Z,63.84
2017-12-15T10:51:29.842Z,63.21
2017-12-15T10:53:59.134Z,64.02
2017-12-15T10:59:04.829Z,63.38
2017-12-15T11:01:34.158Z,62.91
2017-12-15T11:04:04.893Z,62.93
2017-12-15T11:06:33.886Z,62.82
2017-12-15T11:09:03.138Z,62.75
2017-12-15T11:11:33.698Z,63.39
2017-12-15T11:14:04.772Z,63.97
2017-12-15T11:16:37.297Z,64.05
2017-12-15T11:19:06.535Z,63.93
2017-12-15T11:21:35.584Z,63.83
2017-12-15T11:24:07.425Z,63.80
2017-12-15T11:26:37.270Z,63.58
2017-12-15T11:29:06.876Z,65.26
2017-12-15T11:31:37.690Z,64.82
2017-12-15T11:34:07.519Z,65.65
2017-12-15T11:36:37.525Z,65.06
2017-12-15T11:39:06.825Z,64.80
2017-12-15T11:41:35.636Z,64.36
2017-12-15T11:44:04.569Z,63.73
2017-12-15T11:46:33.899Z,63.60
2017-12-15T11:49:02.926Z,63.01
2017-12-15T11:51:32.003Z,62.30
2017-12-15T11:54:02.777Z,61.66
2017-12-15T11:56:31.665Z,61.87
2017-12-15T11:59:01.007Z,62.07
2017-12-15T12:01:30.058Z,62.71
2017-12-15T12:04:00.015Z,62.32
2017-12-15T12:06:29.183Z,62.16
2017-12-15T12:08:59.342Z,61.74
2017-12-15T12:11:28.676Z,60.52
2017-12-15T12:13:57.666Z,60.73
2017-12-15T12:16:27.689Z,61.15
2017-12-15T12:18:56.874Z,61.04
2017-12-15T12:21:27.158Z,60.86
2017-12-15T12:23:56.422Z,61.10
2017-12-15T12:26:26.792Z,60.92
2017-12-15T12:28:55.937Z,61.15
2017-12-15T12:31:25.813Z,61.76
2017-12-15T12:33:54.866Z,61.76
2017-12-15T12:36:23.895Z,62.62
2017-12-15T12:38:53.186Z,63.14
2017-12-15T12:41:22.437Z,63.53
2017-12-15T12:43:59.111Z,63.23
2017-12-15T12:46:28.420Z,62.88
2017-12-15T12:48:57.423Z,63.63
2017-12-15T12:51:27.942Z,64.11
2017-12-15T12:53:57.118Z,64.51
2017-12-15T12:56:26.821Z,64.49
2017-12-15T12:59:01.195Z,64.54
2017-12-15T13:01:30.534Z,64.71
2017-12-15T13:04:00.004Z,64.82
2017-12-15T13:06:29.226Z,64.68
2017-12-15T13:08:58.322Z,66.25
2017-12-15T13:11:27.296Z,66.48
2017-12-15T13:13:59.260Z,66.25
2017-12-15T13:16:29.049Z,66.87
2017-12-15T13:18:58.607Z,66.79
2017-12-15T13:21:28.722Z,67.20
2017-12-15T13:24:00.071Z,67.89
2017-12-15T13:26:30.384Z,68.36
2017-12-15T13:29:00.299Z,68.56
2017-12-15T13:31:29.923Z,68.69
2017-12-15T13:34:00.913Z,70.27
2017-12-15T13:36:30.288Z,70.47
2017-12-15T13:38:59.256Z,70.47
2017-12-15T13:41:28.416Z,70.86
2017-12-15T13:43:58.019Z,70.92
2017-12-15T13:46:28.122Z,70.92
2017-12-15T13:49:01.036Z,71.44
2017-12-15T13:51:30.980Z,71.64
2017-12-15T13:54:00.192Z,71.38
2017-12-15T13:56:31.229Z,71.16
2017-12-15T13:59:01.158Z,71.21
2017-12-15T14:01:30.307Z,71.32
2017-12-15T14:04:00.634Z,71.02
2017-12-15T14:06:30.713Z,70.70
2017-12-15T14:08:59.844Z,70.86
2017-12-15T14:11:31.549Z,70.91
2017-12-15T14:14:00.715Z,71.16
2017-12-15T14:16:30.778Z,71.99
2017-12-15T14:19:00.110Z,72.82
2017-12-15T14:21:29.400Z,73.97
2017-12-15T14:23:59.684Z,74.67
2017-12-15T14:26:31.687Z,75.87
2017-12-15T14:29:01.347Z,76.84
2017-12-15T14:31:31.475Z,76.70
2017-12-15T14:34:01.196Z,77.24
2017-12-15T14:36:30.602Z,77.43
2017-12-15T14:39:00.243Z,78.19
2017-12-15T14:41:30.984Z,78.12
2017-12-15T14:44:00.182Z,78.69
2017-12-15T14:46:29.286Z,79.56
2017-12-15T14:48:59.335Z,80.00
2017-12-15T14:51:30.245Z,79.98
2017-12-15T14:54:02.076Z,80.14
2017-12-15T14:56:32.024Z,80.04
2017-12-15T14:59:01.673Z,80.23
2017-12-15T15:01:31.537Z,80.10
2017-12-15T15:04:00.691Z,80.74
2017-12-15T15:06:30.083Z,81.14
2017-12-15T15:09:01.911Z,81.06
2017-12-15T15:11:30.952Z,81.16
2017-12-15T15:14:00.107Z,81.39
2017-12-15T15:16:29.093Z,81.56
2017-12-15T15:18:58.437Z,81.70
2017-12-15T15:21:27.393Z,81.46
2017-12-15T15:23:56.885Z,81.59
2017-12-15T15:26:26.114Z,82.07
2017-12-15T15:29:03.528Z,81.89
2017-12-15T15:31:32.939Z,82.47
2017-12-15T15:34:03.135Z,82.64
2017-12-15T15:36:34.962Z,82.87
2017-12-15T15:39:05.126Z,82.88
2017-12-15T15:41:34.256Z,82.88
2017-12-15T15:44:04.839Z,83.34
2017-12-15T15:46:34.190Z,84.11
2017-12-15T15:49:04.906Z,84.36
2017-12-15T15:51:35.034Z,84.75
2017-12-15T15:54:05.298Z,85.67
2017-12-15T15:56:34.609Z,85.35
2017-12-15T15:59:04.006Z,85.33
2017-12-15T16:01:33.287Z,85.40
2017-12-15T16:04:02.698Z,85.74
2017-12-15T16:06:32.365Z,85.99
2017-12-15T16:09:01.902Z,85.97
2017-12-15T16:11:31.462Z,85.91
2017-12-15T16:14:00.699Z,85.94
2017-12-15T16:16:29.933Z,86.67
2017-12-15T16:19:00.077Z,87.36
2017-12-15T16:24:04.965Z,87.02
2017-12-15T16:26:34.014Z,88.27
2017-12-15T16:29:06.697Z,89.28
2017-12-15T16:31:36.508Z,89.20
2017-12-15T16:34:06.676Z,89.01
2017-12-15T16:36:36.051Z,88.26
2017-12-15T16:39:05.964Z,89.88
2017-12-15T16:41:35.345Z,90.18
2017-12-15T16:44:06.313Z,89.91
2017-12-15T16:46:36.520Z,89.58
2017-12-15T16:49:06.581Z,89.57
2017-12-15T16:51:35.852Z,89.69
2017-12-15T16:54:05.849Z,89.53
2017-12-15T16:56:35.969Z,89.48
2017-12-15T16:59:05.270Z,89.17
2017-12-15T17:01:35.929Z,89.16
2017-12-15T17:04:05.247Z,89.24
2017-12-15T17:06:34.424Z,89.08
2017-12-15T17:09:03.628Z,88.31
2017-12-15T17:11:33.967Z,87.99
2017-12-15T17:14:03.426Z,87.68
2017-12-15T17:16:32.727Z,86.96
2017-12-15T17:19:01.906Z,86.96
2017-12-15T17:21:31.227Z,87.12
2017-12-15T17:24:01.568Z,87.31
2017-12-15T17:26:32.641Z,87.04
2017-12-15T17:29:01.932Z,86.79
2017-12-15T17:31:31.813Z,85.61
2017-12-15T17:34:01.293Z,84.65
2017-12-15T17:36:31.180Z,83.80
2017-12-15T17:39:00.551Z,83.71
2017-12-15T17:41:29.812Z,84.77
2017-12-15T17:43:59.102Z,85.56
2017-12-15T17:46:28.590Z,85.94
2017-12-15T17:48:58.650Z,87.34
2017-12-15T17:51:28.680Z,88.38
2017-12-15T17:54:00.642Z,88.80
2017-12-15T17:56:30.135Z,89.23
2017-12-15T17:59:00.034Z,89.14
2017-12-15T18:01:30.885Z,89.04
2017-12-15T18:04:01.973Z,88.96
2017-12-15T18:06:31.298Z,87.91
2017-12-15T18:09:00.507Z,85.78
2017-12-15T18:11:29.792Z,85.03
2017-12-15T18:14:00.802Z,84.31
2017-12-15T18:16:30.142Z,83.62
2017-12-15T18:18:59.665Z,83.76
2017-12-15T18:21:29.277Z,84.37
2017-12-15T18:26:34.145Z,84.37
2017-12-15T18:29:03.491Z,85.15
2017-12-15T18:31:33.566Z,85.81
2017-12-15T18:34:03.521Z,86.05
2017-12-15T18:36:32.997Z,85.71
2017-12-15T18:39:25.193Z,86.15
2017-12-15T18:41:54.234Z,85.85
2017-12-15T18:44:23.379Z,85.26
2017-12-15T18:46:52.554Z,84.95
2017-12-15T18:49:21.676Z,84.88
2017-12-15T18:51:52.618Z,84.75
2017-12-15T18:54:22.838Z,84.36
2017-12-15T18:56:52.410Z,84.36
2017-12-15T18:59:21.754Z,84.67
2017-12-15T19:01:51.308Z,84.46
2017-12-15T19:04:21.593Z,84.31
2017-12-15T19:06:51.436Z,84.53
2017-12-15T19:09:21.269Z,84.58
2017-12-15T19:11:50.705Z,84.75
2017-12-15T19:14:21.065Z,85.13
2017-12-15T19:16:50.130Z,85.16
2017-12-15T19:19:19.660Z,84.65
2017-12-15T19:21:49.888Z,84.40
2017-12-15T19:24:19.183Z,85.07
2017-12-15T19:26:48.358Z,85.35
2017-12-15T19:29:18.394Z,85.39
2017-12-15T19:31:48.716Z,85.24
2017-12-15T19:34:17.921Z,84.51
2017-12-15T19:36:47.137Z,83.82
2017-12-15T19:39:16.231Z,83.26
2017-12-15T19:41:45.321Z,82.95
2017-12-15T19:44:15.644Z,82.52
2017-12-15T19:46:45.076Z,82.39
2017-12-15T19:49:14.266Z,81.23
2017-12-15T19:51:46.691Z,77.02
2017-12-15T19:54:17.637Z,76.88
2017-12-15T19:56:47.721Z,76.16
2017-12-15T19:59:16.850Z,74.29
2017-12-15T20:01:46.056Z,73.30
2017-12-15T20:04:17.716Z,72.57
2017-12-15T20:06:47.538Z,71.92
2017-12-15T20:09:16.773Z,71.87
2017-12-15T20:11:50.797Z,71.83
2017-12-15T20:14:19.850Z,71.43
2017-12-15T20:16:48.970Z,70.89
2017-12-15T20:19:18.048Z,70.30
2017-12-15T20:21:47.405Z,69.81
2017-12-15T20:24:17.040Z,69.45
2017-12-15T20:26:46.309Z,69.17
2017-12-15T20:29:15.570Z,69.72
2017-12-15T20:31:44.822Z,69.44
2017-12-15T20:34:14.454Z,69.64
2017-12-15T20:36:44.812Z,69.67
2017-12-15T20:39:14.125Z,69.86
2017-12-15T20:41:46.320Z,70.21
2017-12-15T20:44:15.434Z,69.74
2017-12-15T20:46:44.807Z,69.71
2017-12-15T20:49:14.606Z,69.67
2017-12-15T20:51:44.035Z,69.75
2017-12-15T20:54:13.524Z,69.51
2017-12-15T20:56:43.061Z,69.04
2017-12-15T20:59:23.546Z,68.67
2017-12-15T21:02:00.137Z,68.48
2017-12-15T21:04:29.815Z,68.30
2017-12-15T21:06:59.165Z,68.14
2017-12-15T21:09:28.504Z,68.19
2017-12-15T21:11:57.950Z,68.19
2017-12-15T21:14:27.356Z,68.58
2017-12-15T21:16:57.500Z,68.73
2017-12-15T21:19:26.842Z,68.97
2017-12-15T21:21:56.234Z,69.19
2017-12-15T21:24:27.015Z,69.19
2017-12-15T21:26:56.779Z,69.76
2017-12-15T21:29:26.965Z,70.03
2017-12-15T21:31:57.986Z,71.93
2017-12-15T21:34:27.073Z,72.57
2017-12-15T21:36:56.066Z,73.39
2017-12-15T21:39:24.982Z,74.12
2017-12-15T21:41:54.126Z,74.62
2017-12-15T21:44:23.092Z,74.73
2017-12-15T21:46:56.550Z,74.89
2017-12-15T21:49:25.564Z,74.71
2017-12-15T21:51:54.578Z,74.29
2017-12-15T21:54:23.633Z,73.97
2017-12-15T21:56:54.944Z,73.45
2017-12-15T21:59:24.109Z,73.07
2017-12-15T22:01:55.315Z,72.89
2017-12-15T22:04:24.351Z,72.34
2017-12-15T22:06:53.475Z,72.18
2017-12-15T22:09:25.572Z,72.08
2017-12-15T22:11:55.611Z,72.06
2017-12-15T22:14:24.763Z,72.40
2017-12-15T22:16:54.858Z,72.44
2017-12-15T22:19:24.157Z,72.81
2017-12-15T22:21:53.202Z,74.03
2017-12-15T22:24:24.887Z,74.64
2017-12-15T22:26:53.800Z,74.00
2017-12-15T22:29:22.715Z,73.63
2017-12-15T22:31:51.998Z,73.65
2017-12-15T22:34:20.957Z,73.70
2017-12-15T22:36:49.868Z,73.40
2017-12-15T22:39:18.885Z,73.57
2017-12-15T22:41:47.916Z,73.91
2017-12-15T22:44:17.254Z,74.23
2017-12-15T22:46:47.060Z,73.76
2017-12-15T22:49:16.318Z,73.26
2017-12-15T22:51:46.130Z,73.37
2017-12-15T22:54:16.245Z,73.31
2017-12-15T22:56:45.795Z,73.49
2017-12-15T22:59:14.924Z,73.51
2017-12-15T23:01:45.471Z,73.52
2017-12-15T23:04:14.785Z,73.33
2017-12-15T23:06:44.271Z,73.45
2017-12-15T23:09:13.671Z,73.60
2017-12-15T23:11:44.609Z,73.62
2017-12-15T23:14:13.917Z,73.80
2017-12-15T23:16:44.406Z,73.95
2017-12-15T23:19:14.281Z,74.10
2017-12-15T23:21:44.349Z,74.32
2017-12-15T23:24:13.884Z,74.89
2017-12-15T23:26:43.176Z,74.85
2017-12-15T23:29:12.268Z,75.49
2017-12-15T23:34:20.568Z,75.42
2017-12-15T23:36:50.863Z,75.41
2017-12-15T23:39:23.812Z,75.40
2017-12-15T23:41:54.903Z,75.41
2017-12-15T23:47:02.088Z,75.53
2017-12-15T23:49:31.581Z,76.04
2017-12-15T23:52:00.869Z,76.65
2017-12-15T23:54:41.740Z,76.25
2017-12-15T23:57:11.615Z,76.33
2017-12-15T23:59:42.709Z,76.49
